Time;durP1;ratioP1;P1;durP2;ratioP2;P2;SDS_P1;SDS_P2;PMS_P1;PMS_P2;Temp;Humidity;BMP_temperature;BMP_pressure;BME280_temperature;BME280_humidity;BME280_pressure;Samples;Min_cycle;Max_cycle;Signal;HPM_P1;HPM_P2
2022/11/25 00:01:19;;;;;;;79.70;19.55;;;4.30;99.90;;;;;;5029260;28;20104;-74
2022/11/25 00:03:45;;;;;;;67.68;19.63;;;4.20;99.90;;;;;;5028310;28;20050;-73
2022/11/25 00:06:25;;;;;;;71.75;19.30;;;4.10;99.90;;;;;;5029682;28;20106;-72
2022/11/25 00:08:54;;;;;;;68.90;18.38;;;4.10;99.90;;;;;;5022883;28;20414;-72
2022/11/25 00:11:20;;;;;;;72.20;17.20;;;4.10;99.90;;;;;;5027419;28;20032;-74
2022/11/25 00:13:46;;;;;;;63.38;18.48;;;4.30;99.90;;;;;;5023618;28;20041;-73
2022/11/25 00:16:14;;;;;;;77.53;19.88;;;4.30;99.90;;;;;;5027557;28;20025;-73
2022/11/25 00:18:43;;;;;;;71.60;19.50;;;4.20;99.90;;;;;;5027378;28;20041;-73
2022/11/25 00:21:12;;;;;;;72.80;18.77;;;4.30;99.90;;;;;;5027840;28;20095;-73
2022/11/25 00:23:38;;;;;;;77.30;19.88;;;4.30;99.90;;;;;;5026412;28;20349;-72
2022/11/25 00:26:08;;;;;;;71.88;20.73;;;4.30;99.90;;;;;;5033394;28;20025;-73
2022/11/25 00:28:33;;;;;;;70.25;19.10;;;4.30;99.90;;;;;;5023502;28;20026;-72
2022/11/25 00:31:10;;;;;;;78.97;19.63;;;4.30;99.90;;;;;;5040186;28;20313;-72
2022/11/25 00:33:36;;;;;;;74.00;20.95;;;4.30;99.90;;;;;;5012194;28;20070;-72
2022/11/25 00:36:06;;;;;;;80.53;20.13;;;4.20;99.90;;;;;;5025400;28;20354;-72
2022/11/25 00:38:32;;;;;;;76.82;19.45;;;4.10;99.90;;;;;;5041599;28;20382;-72
2022/11/25 00:46:26;;;;;;;69.18;18.65;;;4.00;99.90;;;;;;5038893;28;20388;-73
2022/11/25 00:48:52;;;;;;;80.93;19.73;;;3.90;99.90;;;;;;5037776;28;20120;-72
2022/11/25 00:51:17;;;;;;;76.97;20.38;;;3.90;99.90;;;;;;5039639;28;20385;-72
2022/11/25 00:53:43;;;;;;;81.43;20.25;;;3.90;99.90;;;;;;5025066;28;20330;-74
2022/11/25 00:56:14;;;;;;;84.60;19.70;;;3.80;99.90;;;;;;5022846;28;20104;-73
2022/11/25 00:58:41;;;;;;;73.38;19.45;;;3.80;99.90;;;;;;5009299;28;20455;-72
2022/11/25 01:01:07;;;;;;;83.78;20.50;;;3.90;99.90;;;;;;5019813;28;21000;-73
2022/11/25 01:03:35;;;;;;;79.20;19.15;;;3.90;99.90;;;;;;5032266;28;20180;-73
2022/11/25 01:06:02;;;;;;;76.35;18.17;;;3.90;99.90;;;;;;5039565;28;20104;-72
2022/11/25 01:08:31;;;;;;;69.55;18.48;;;3.90;99.90;;;;;;5029565;28;20029;-73
2022/11/25 01:11:06;;;;;;;86.88;20.13;;;3.70;99.90;;;;;;5031641;28;20029;-73
2022/11/25 01:13:32;;;;;;;78.78;19.05;;;3.80;99.90;;;;;;5019694;28;20030;-72
2022/11/25 01:16:03;;;;;;;73.78;18.25;;;3.80;99.90;;;;;;5036029;28;20050;-73
2022/11/25 01:18:30;;;;;;;64.75;17.58;;;3.80;99.90;;;;;;5024269;28;20380;-74
2022/11/25 01:21:13;;;;;;;80.53;18.25;;;3.70;99.90;;;;;;5021971;28;20139;-73
2022/11/25 01:23:40;;;;;;;80.20;18.85;;;3.70;99.90;;;;;;5028294;28;20478;-74
2022/11/25 01:26:09;;;;;;;74.18;17.63;;;3.70;99.90;;;;;;5021400;28;20029;-73
2022/11/25 01:28:34;;;;;;;76.20;18.52;;;3.70;99.90;;;;;;5030439;28;20025;-76
2022/11/25 01:31:08;;;;;;;86.63;19.65;;;3.70;99.90;;;;;;5024504;28;20029;-72
2022/11/25 01:33:35;;;;;;;68.53;17.75;;;3.70;99.90;;;;;;5029883;28;20040;-74
2022/11/25 01:36:05;;;;;;;82.72;20.33;;;3.80;99.90;;;;;;5032175;28;20037;-73
2022/11/25 01:38:32;;;;;;;81.03;17.88;;;3.80;99.90;;;;;;5028440;28;20021;-72
2022/11/25 01:40:58;;;;;;;72.93;18.92;;;3.80;99.90;;;;;;5031754;28;20040;-73
2022/11/25 01:43:25;;;;;;;79.63;19.05;;;3.80;99.90;;;;;;5020309;28;20521;-73
2022/11/25 01:45:51;;;;;;;79.65;19.45;;;3.80;99.90;;;;;;5027454;28;20033;-74
2022/11/25 01:48:48;;;;;;;78.10;20.02;;;3.80;99.90;;;;;;5028923;28;20303;-73
2022/11/25 01:51:19;;;;;;;74.53;18.05;;;3.80;99.90;;;;;;5024007;28;20446;-72
2022/11/25 01:53:45;;;;;;;81.55;19.23;;;3.70;99.90;;;;;;5027818;28;20322;-73
2022/11/25 01:56:11;;;;;;;82.20;18.67;;;3.70;99.90;;;;;;5027269;28;20069;-72
2022/11/25 01:58:38;;;;;;;82.68;19.35;;;3.60;99.90;;;;;;5026702;28;20624;-74
2022/11/25 02:01:03;;;;;;;91.57;21.10;;;3.60;99.90;;;;;;5022495;28;20357;-75
2022/11/25 02:03:33;;;;;;;79.68;18.45;;;3.50;99.90;;;;;;5028713;28;20049;-74
2022/11/25 02:06:13;;;;;;;84.32;19.00;;;3.50;99.90;;;;;;5034168;28;20022;-72
2022/11/25 02:08:41;;;;;;;73.30;17.03;;;3.50;99.90;;;;;;5038067;28;20028;-73
2022/11/25 02:11:06;;;;;;;83.05;18.58;;;3.40;99.90;;;;;;5028603;28;20052;-74
2022/11/25 02:13:32;;;;;;;73.13;19.58;;;3.40;99.90;;;;;;5024203;28;20029;-73
2022/11/25 02:15:58;;;;;;;75.13;17.95;;;3.40;99.90;;;;;;5038553;28;20364;-73
2022/11/25 02:18:25;;;;;;;72.80;17.60;;;3.40;99.90;;;;;;5021575;28;20029;-73
2022/11/25 02:20:51;;;;;;;75.35;18.45;;;3.40;99.90;;;;;;5020380;28;20100;-73
2022/11/25 02:23:31;;;;;;;69.10;16.80;;;3.40;99.90;;;;;;5029379;28;20457;-73
2022/11/25 02:25:57;;;;;;;67.38;17.40;;;3.30;99.90;;;;;;5032200;28;20037;-73
2022/11/25 02:28:25;;;;;;;72.10;17.80;;;3.20;99.90;;;;;;5034566;28;20033;-73
2022/11/25 02:30:51;;;;;;;68.65;17.67;;;3.30;99.90;;;;;;5025156;28;20033;-72
2022/11/25 02:33:17;;;;;;;78.35;18.77;;;3.20;99.90;;;;;;5022472;28;20017;-73
2022/11/25 02:35:56;;;;;;;72.78;17.92;;;3.20;99.90;;;;;;5020853;28;20161;-73
2022/11/25 02:38:23;;;;;;;60.65;16.35;;;3.20;99.90;;;;;;5033203;28;20347;-73
2022/11/25 02:41:06;;;;;;;63.75;16.80;;;3.30;99.90;;;;;;5032176;28;20071;-72
2022/11/25 02:43:32;;;;;;;70.65;18.05;;;3.30;99.90;;;;;;5023265;28;20166;-72
2022/11/25 02:46:09;;;;;;;80.35;18.23;;;3.30;99.90;;;;;;5028334;28;20133;-74
2022/11/25 02:48:36;;;;;;;66.75;16.95;;;3.30;99.90;;;;;;5028946;28;20108;-73
2022/11/25 02:51:03;;;;;;;75.40;17.10;;;3.30;99.90;;;;;;5028330;28;20037;-73
2022/11/25 02:53:28;;;;;;;76.20;17.08;;;3.30;99.90;;;;;;5024252;28;20182;-72
2022/11/25 02:55:54;;;;;;;80.50;17.83;;;3.30;99.90;;;;;;5030540;28;20025;-73
2022/11/25 02:58:19;;;;;;;83.35;17.85;;;3.20;99.90;;;;;;5022748;28;20629;-73
2022/11/25 03:00:45;;;;;;;71.82;16.70;;;3.20;99.90;;;;;;5027726;28;20021;-73
2022/11/25 03:03:11;;;;;;;76.78;18.58;;;3.20;99.90;;;;;;5028878;28;20457;-72
2022/11/25 03:05:37;;;;;;;73.07;17.83;;;3.20;99.90;;;;;;5036643;28;20112;-73
2022/11/25 03:08:03;;;;;;;70.43;19.38;;;3.10;99.90;;;;;;5018400;28;20458;-73
2022/11/25 03:10:28;;;;;;;73.57;18.75;;;3.20;99.90;;;;;;5016930;28;20070;-73
2022/11/25 03:12:54;;;;;;;81.18;18.23;;;3.20;99.90;;;;;;5031635;28;20037;-73
2022/11/25 03:15:20;;;;;;;80.60;17.58;;;3.30;99.90;;;;;;5028081;28;20025;-72
2022/11/25 03:17:45;;;;;;;72.30;17.23;;;3.30;99.90;;;;;;5029885;28;20112;-73
2022/11/25 03:20:12;;;;;;;69.63;17.67;;;3.30;99.90;;;;;;5042334;28;20029;-73
2022/11/25 03:22:38;;;;;;;61.97;16.95;;;3.30;99.90;;;;;;5038972;28;20045;-73
2022/11/25 03:25:05;;;;;;;70.03;16.13;;;3.30;99.90;;;;;;5032439;28;20045;-73
2022/11/25 03:27:32;;;;;;;60.72;17.70;;;3.30;99.90;;;;;;5023001;28;20018;-72
2022/11/25 03:29:57;;;;;;;71.90;17.13;;;3.30;99.90;;;;;;5030274;28;20120;-73
2022/11/25 03:32:23;;;;;;;67.55;16.15;;;3.30;99.90;;;;;;5020726;28;20106;-73
2022/11/25 03:34:48;;;;;;;64.43;15.68;;;3.30;99.90;;;;;;5020693;28;20513;-73
2022/11/25 03:37:14;;;;;;;62.95;16.77;;;3.30;99.90;;;;;;5033351;28;20033;-73
2022/11/25 03:39:39;;;;;;;66.00;16.35;;;3.30;99.90;;;;;;5030183;28;20033;-73
2022/11/25 03:42:05;;;;;;;70.28;17.40;;;3.30;99.90;;;;;;5025325;28;20035;-73
2022/11/25 03:44:30;;;;;;;73.82;16.20;;;3.30;99.90;;;;;;5012863;28;20034;-73
2022/11/25 03:46:56;;;;;;;65.82;15.65;;;3.30;99.90;;;;;;5037416;28;20166;-73
2022/11/25 03:49:21;;;;;;;70.85;16.23;;;3.30;99.90;;;;;;5033217;28;20035;-73
2022/11/25 03:51:48;;;;;;;67.25;15.98;;;3.30;99.90;;;;;;5030682;28;20042;-73
2022/11/25 03:54:13;;;;;;;61.10;16.08;;;3.30;99.90;;;;;;5022308;28;20036;-73
2022/11/25 03:56:39;;;;;;;59.65;15.43;;;3.30;99.90;;;;;;5034911;28;20048;-72
2022/11/25 03:59:04;;;;;;;55.20;15.43;;;3.30;99.90;;;;;;5023873;28;20128;-73
2022/11/25 04:01:30;;;;;;;70.30;13.85;;;3.20;99.90;;;;;;5027818;28;20029;-73
2022/11/25 04:03:56;;;;;;;59.08;14.13;;;3.30;99.90;;;;;;5027397;28;20037;-72
2022/11/25 04:06:22;;;;;;;54.67;14.63;;;3.30;99.90;;;;;;5032787;28;20096;-73
2022/11/25 04:08:49;;;;;;;66.28;14.23;;;3.30;99.90;;;;;;5035343;28;20124;-72
2022/11/25 04:11:14;;;;;;;64.95;14.98;;;3.30;99.90;;;;;;5026252;28;20041;-73
2022/11/25 04:13:40;;;;;;;52.70;14.15;;;3.30;99.90;;;;;;5017033;28;20438;-72
2022/11/25 04:16:05;;;;;;;53.13;13.57;;;3.30;99.90;;;;;;5033237;28;20029;-73
2022/11/25 04:18:31;;;;;;;48.42;13.15;;;3.30;99.90;;;;;;5030262;28;20033;-73
2022/11/25 04:20:57;;;;;;;54.22;13.05;;;3.30;99.90;;;;;;5033388;28;20037;-73
2022/11/25 04:23:23;;;;;;;51.03;12.60;;;3.30;99.90;;;;;;5032484;28;20383;-73
2022/11/25 04:25:49;;;;;;;51.75;12.48;;;3.40;99.90;;;;;;5033135;28;20082;-73
2022/11/25 04:28:15;;;;;;;44.05;11.55;;;3.40;99.90;;;;;;5019989;28;20017;-73
2022/11/25 04:30:40;;;;;;;57.80;12.55;;;3.40;99.90;;;;;;5022569;28;20049;-73
2022/11/25 04:33:06;;;;;;;42.70;11.23;;;3.40;99.90;;;;;;5036238;28;20021;-73
2022/11/25 04:35:32;;;;;;;46.90;11.75;;;3.30;99.90;;;;;;5024218;28;21285;-73
2022/11/25 04:37:57;;;;;;;46.30;11.77;;;3.40;99.90;;;;;;5030499;28;20055;-73
2022/11/25 04:40:22;;;;;;;52.35;11.10;;;3.40;99.90;;;;;;5031460;28;20200;-73
2022/11/25 04:42:48;;;;;;;45.10;12.80;;;3.40;99.90;;;;;;5030517;28;20047;-73
2022/11/25 04:45:16;;;;;;;51.15;11.45;;;3.50;99.90;;;;;;5009491;28;20398;-73
2022/11/25 04:47:43;;;;;;;45.63;12.05;;;3.50;99.90;;;;;;5012095;28;20502;-73
2022/11/25 04:50:13;;;;;;;43.60;10.73;;;3.50;99.90;;;;;;5024377;28;20153;-73
2022/11/25 04:52:38;;;;;;;41.97;11.03;;;3.40;99.90;;;;;;5026585;28;20434;-73
2022/11/25 04:55:04;;;;;;;54.25;12.27;;;3.50;99.90;;;;;;5026272;28;20101;-74
2022/11/25 04:57:29;;;;;;;46.50;11.57;;;3.50;99.90;;;;;;5023178;28;20093;-73
2022/11/25 04:59:55;;;;;;;35.22;10.15;;;3.50;99.90;;;;;;5029442;28;20029;-73
2022/11/25 05:02:23;;;;;;;50.25;11.98;;;3.50;99.90;;;;;;5017645;28;20032;-72
2022/11/25 05:04:51;;;;;;;41.15;10.95;;;3.60;99.90;;;;;;5029431;28;20045;-73
2022/11/25 05:07:18;;;;;;;37.05;10.52;;;3.60;99.90;;;;;;5030226;28;20116;-72
2022/11/25 05:09:44;;;;;;;44.72;11.25;;;3.60;99.90;;;;;;5029704;28;20025;-73
2022/11/25 05:12:14;;;;;;;49.25;10.63;;;3.60;99.90;;;;;;5031494;28;20032;-73
2022/11/25 05:14:40;;;;;;;50.88;11.68;;;3.60;99.90;;;;;;5037593;28;20041;-73
2022/11/25 05:17:10;;;;;;;49.70;10.98;;;3.60;99.90;;;;;;5032521;28;20033;-73
2022/11/25 05:19:35;;;;;;;56.25;11.95;;;3.60;99.90;;;;;;5029567;28;20474;-73
2022/11/25 05:22:01;;;;;;;47.95;11.65;;;3.60;99.90;;;;;;5022532;28;20140;-73
2022/11/25 05:24:26;;;;;;;46.47;10.68;;;3.60;99.90;;;;;;5024951;28;20042;-74
2022/11/25 05:26:52;;;;;;;40.25;10.30;;;3.70;99.90;;;;;;5026309;28;20807;-73
2022/11/25 05:29:18;;;;;;;36.22;10.40;;;3.60;99.90;;;;;;5018668;28;20092;-79
2022/11/25 05:31:43;;;;;;;39.53;11.13;;;3.60;99.90;;;;;;5033144;28;20022;-75
2022/11/25 05:34:08;;;;;;;48.25;11.07;;;3.60;99.90;;;;;;5030541;28;20443;-75
2022/11/25 05:36:34;;;;;;;40.70;10.77;;;3.60;99.90;;;;;;5035186;28;20069;-74
2022/11/25 05:39:00;;;;;;;39.45;10.25;;;3.60;99.90;;;;;;5036967;28;20028;-75
2022/11/25 05:41:26;;;;;;;38.70;9.68;;;3.50;99.90;;;;;;5025980;28;20031;-74
2022/11/25 05:43:51;;;;;;;31.77;9.52;;;3.60;99.90;;;;;;5026839;28;20066;-74
2022/11/25 05:46:17;;;;;;;35.95;10.05;;;3.50;99.90;;;;;;5028798;28;20326;-75
2022/11/25 05:48:43;;;;;;;35.67;9.45;;;3.50;99.90;;;;;;5032776;28;20393;-74
2022/11/25 05:51:08;;;;;;;41.10;10.55;;;3.50;99.90;;;;;;5028630;28;20166;-75
2022/11/25 05:53:34;;;;;;;35.33;8.65;;;3.60;99.90;;;;;;5034985;28;20139;-73
2022/11/25 05:56:02;;;;;;;35.92;9.55;;;3.60;99.90;;;;;;5030831;28;20399;-75
2022/11/25 05:58:29;;;;;;;29.65;8.85;;;3.60;99.90;;;;;;5021276;28;20029;-75
2022/11/25 06:00:57;;;;;;;31.48;8.52;;;3.60;99.90;;;;;;5026183;28;20033;-74
2022/11/25 06:03:26;;;;;;;38.03;8.23;;;3.60;99.90;;;;;;5036552;28;20033;-74
2022/11/25 06:05:54;;;;;;;34.92;8.50;;;3.60;99.90;;;;;;5015583;28;20021;-74
2022/11/25 06:08:19;;;;;;;41.03;9.15;;;3.60;99.90;;;;;;5025541;28;20045;-75
2022/11/25 06:10:45;;;;;;;35.00;8.77;;;3.60;99.90;;;;;;5031757;28;20052;-74
2022/11/25 06:13:10;;;;;;;31.90;8.43;;;3.60;99.90;;;;;;5020294;28;20099;-74
2022/11/25 06:15:41;;;;;;;36.70;8.88;;;3.70;99.90;;;;;;5021085;28;20145;-74
2022/11/25 06:18:07;;;;;;;28.77;9.27;;;3.70;99.90;;;;;;5028257;28;20033;-75
2022/11/25 06:20:32;;;;;;;33.88;7.72;;;3.70;99.90;;;;;;5020041;28;20302;-75
2022/11/25 06:22:58;;;;;;;29.92;9.07;;;3.80;99.90;;;;;;5027418;28;20424;-74
2022/11/25 06:25:24;;;;;;;29.00;7.85;;;3.70;99.90;;;;;;5020414;28;20127;-75
2022/11/25 06:27:50;;;;;;;30.75;7.90;;;3.80;99.90;;;;;;5022069;28;20061;-75
2022/11/25 06:30:15;;;;;;;29.52;8.23;;;3.80;99.80;;;;;;5026182;28;20460;-75
2022/11/25 06:32:41;;;;;;;31.13;7.68;;;3.80;99.80;;;;;;5021264;28;20445;-74
2022/11/25 06:35:07;;;;;;;36.00;7.88;;;3.80;99.80;;;;;;5022386;28;20151;-75
2022/11/25 06:37:33;;;;;;;31.13;7.38;;;3.90;99.70;;;;;;5029070;28;20025;-75
2022/11/25 06:39:58;;;;;;;37.90;7.85;;;3.90;99.70;;;;;;5025773;28;20357;-75
2022/11/25 06:42:24;;;;;;;27.75;7.68;;;4.00;99.70;;;;;;5023002;28;20030;-78
2022/11/25 06:44:49;;;;;;;31.85;8.00;;;4.10;99.70;;;;;;5021599;28;20029;-78
2022/11/25 06:47:15;;;;;;;30.13;7.28;;;4.10;99.60;;;;;;5037400;28;20048;-78
2022/11/25 06:49:40;;;;;;;27.00;7.32;;;4.10;99.50;;;;;;5023000;28;20124;-73
2022/11/25 06:52:06;;;;;;;29.83;7.25;;;4.10;99.40;;;;;;5029384;28;20033;-73
2022/11/25 06:54:32;;;;;;;30.48;6.82;;;4.10;99.40;;;;;;5025416;28;20021;-73
2022/11/25 06:56:58;;;;;;;34.42;7.50;;;4.10;99.40;;;;;;5024979;28;20132;-73
2022/11/25 06:59:23;;;;;;;29.48;7.25;;;4.10;99.40;;;;;;5026116;28;20112;-74
2022/11/25 07:01:49;;;;;;;28.58;7.28;;;4.10;99.30;;;;;;5026053;28;20526;-71
2022/11/25 07:04:14;;;;;;;31.10;6.75;;;4.10;99.30;;;;;;5024475;28;20117;-73
2022/11/25 07:06:40;;;;;;;26.40;7.25;;;4.10;99.30;;;;;;5020748;28;20037;-74
2022/11/25 07:09:05;;;;;;;35.63;7.32;;;4.10;99.30;;;;;;5017920;28;21829;-73
2022/11/25 07:11:36;;;;;;;26.55;7.53;;;4.10;99.30;;;;;;5026412;28;20087;-73
2022/11/25 07:14:05;;;;;;;29.05;7.25;;;4.10;99.30;;;;;;5026294;28;20075;-73
2022/11/25 07:16:31;;;;;;;26.27;6.50;;;4.10;99.20;;;;;;5030073;28;20067;-73
2022/11/25 07:19:01;;;;;;;27.85;6.05;;;4.20;99.20;;;;;;5031849;28;20453;-73
2022/11/25 07:21:28;;;;;;;29.63;7.35;;;4.20;99.20;;;;;;5029044;28;20025;-74
2022/11/25 07:23:54;;;;;;;27.60;6.68;;;4.30;99.20;;;;;;5025858;28;20041;-73
2022/11/25 07:26:23;;;;;;;25.75;7.55;;;4.30;99.20;;;;;;5027770;28;20095;-74
2022/11/25 07:28:50;;;;;;;24.20;6.38;;;4.30;99.20;;;;;;5025870;28;20044;-73
2022/11/25 07:31:20;;;;;;;28.50;7.18;;;4.40;99.20;;;;;;5027848;28;20051;-74
2022/11/25 07:33:46;;;;;;;28.17;6.90;;;4.40;99.20;;;;;;5025502;28;20148;-73
2022/11/25 07:36:13;;;;;;;24.23;6.28;;;4.40;99.20;;;;;;5020449;28;20033;-73
2022/11/25 07:38:40;;;;;;;25.73;6.38;;;4.40;99.20;;;;;;5028103;28;20044;-74
2022/11/25 07:41:14;;;;;;;30.20;7.20;;;4.50;99.20;;;;;;5023948;28;20356;-73
2022/11/25 07:43:42;;;;;;;24.30;6.03;;;4.60;99.20;;;;;;5024632;28;20022;-75
2022/11/25 07:46:09;;;;;;;27.13;6.80;;;4.60;99.20;;;;;;5025627;28;20040;-75
2022/11/25 07:48:34;;;;;;;23.75;6.68;;;4.60;99.10;;;;;;5030508;28;20060;-75
2022/11/25 07:51:00;;;;;;;21.13;6.55;;;4.60;99.10;;;;;;5027035;28;20057;-74
2022/11/25 07:53:25;;;;;;;30.40;6.78;;;4.60;99.10;;;;;;5032349;28;20414;-75
2022/11/25 07:55:50;;;;;;;16.55;6.93;;;4.70;99.00;;;;;;5037948;28;20037;-73
2022/11/25 07:58:16;;;;;;;23.38;5.88;;;4.70;99.00;;;;;;5028431;28;20029;-73
2022/11/25 08:00:41;;;;;;;25.70;6.35;;;4.70;99.00;;;;;;5031303;28;20051;-73
2022/11/25 08:03:07;;;;;;;29.92;6.43;;;4.80;98.90;;;;;;5031882;28;20458;-73
2022/11/25 08:05:32;;;;;;;25.33;6.47;;;4.80;98.90;;;;;;5031888;28;20040;-73
2022/11/25 08:07:58;;;;;;;25.08;6.93;;;4.80;98.90;;;;;;5042056;28;20029;-73
2022/11/25 08:10:23;;;;;;;28.60;6.03;;;4.80;98.90;;;;;;5031192;28;20025;-73
2022/11/25 08:12:49;;;;;;;24.00;6.15;;;4.80;98.90;;;;;;5029941;28;20025;-73
2022/11/25 08:15:14;;;;;;;24.60;7.15;;;4.80;98.80;;;;;;5027698;28;20338;-73
2022/11/25 08:17:40;;;;;;;22.48;6.20;;;4.90;98.80;;;;;;5041666;28;20032;-73
2022/11/25 08:20:06;;;;;;;24.20;6.90;;;4.90;98.80;;;;;;5025949;28;20033;-73
2022/11/25 08:22:31;;;;;;;31.77;6.07;;;4.90;98.80;;;;;;5022255;28;20049;-76
2022/11/25 08:24:57;;;;;;;17.27;5.40;;;5.00;98.80;;;;;;5023041;28;20032;-70
2022/11/25 08:27:22;;;;;;;21.08;6.80;;;5.00;98.80;;;;;;5029064;28;20397;-75
2022/11/25 08:29:48;;;;;;;21.23;6.25;;;5.00;98.80;;;;;;5026319;28;20026;-74
2022/11/25 08:32:13;;;;;;;28.15;6.80;;;5.00;98.70;;;;;;5014043;28;20037;-74
2022/11/25 08:34:39;;;;;;;23.45;5.80;;;5.10;98.70;;;;;;5030618;28;20116;-73
2022/11/25 08:37:04;;;;;;;29.73;6.13;;;5.10;98.70;;;;;;5027939;28;20333;-74
2022/11/25 08:39:30;;;;;;;21.80;5.82;;;5.10;98.70;;;;;;5029484;28;20514;-74
2022/11/25 08:41:55;;;;;;;18.33;5.47;;;5.10;98.70;;;;;;5023989;28;20107;-74
2022/11/25 08:44:21;;;;;;;20.83;5.57;;;5.20;98.70;;;;;;5029098;28;20100;-74
2022/11/25 08:46:46;;;;;;;16.98;5.15;;;5.20;98.70;;;;;;5029103;28;20033;-73
2022/11/25 08:49:12;;;;;;;19.92;5.63;;;5.20;98.60;;;;;;5028233;28;20025;-75
2022/11/25 08:51:39;;;;;;;19.33;6.03;;;5.20;98.60;;;;;;5031261;28;20446;-74
2022/11/25 08:54:06;;;;;;;20.98;5.85;;;5.20;98.70;;;;;;5037330;28;20047;-74
2022/11/25 08:56:32;;;;;;;20.45;5.47;;;5.30;98.70;;;;;;5023379;28;20107;-73
2022/11/25 08:58:58;;;;;;;25.50;6.63;;;5.30;98.70;;;;;;5025497;28;20033;-73
2022/11/25 09:01:24;;;;;;;18.23;5.55;;;5.30;98.70;;;;;;5027216;28;20029;-73
2022/11/25 09:03:54;;;;;;;18.00;5.22;;;5.30;98.70;;;;;;5031124;28;20555;-74
2022/11/25 09:06:20;;;;;;;26.90;5.78;;;5.30;98.70;;;;;;5029304;28;20033;-75
2022/11/25 09:08:46;;;;;;;18.17;4.97;;;5.40;98.70;;;;;;5030859;28;20033;-74
2022/11/25 09:11:12;;;;;;;28.83;6.13;;;5.40;98.70;;;;;;5028198;28;20349;-74
2022/11/25 09:13:38;;;;;;;19.98;4.90;;;5.50;98.80;;;;;;5024712;28;20089;-70
2022/11/25 09:16:03;;;;;;;20.05;5.03;;;5.50;98.80;;;;;;5029834;28;20368;-70
2022/11/25 09:18:30;;;;;;;25.50;5.40;;;5.60;98.80;;;;;;5030934;28;20112;-75
2022/11/25 09:20:57;;;;;;;17.30;4.90;;;5.60;98.70;;;;;;5026269;28;20458;-75
2022/11/25 09:23:23;;;;;;;17.55;4.97;;;5.60;98.60;;;;;;5028866;28;20063;-75
2022/11/25 09:25:54;;;;;;;16.65;5.15;;;5.60;98.70;;;;;;5036589;28;20021;-75
2022/11/25 09:28:21;;;;;;;20.20;5.32;;;5.60;98.60;;;;;;5020995;28;20498;-75
2022/11/25 09:30:46;;;;;;;17.95;5.93;;;5.60;98.60;;;;;;5024789;28;20105;-74
2022/11/25 09:33:12;;;;;;;18.52;6.03;;;5.70;98.60;;;;;;5029573;28;20434;-74
2022/11/25 09:35:38;;;;;;;22.48;5.75;;;5.60;98.60;;;;;;5031728;28;20040;-73
2022/11/25 09:38:03;;;;;;;20.98;5.60;;;5.70;98.70;;;;;;5027723;28;20361;-74
2022/11/25 09:40:55;;;;;;;15.38;4.80;;;5.80;98.70;;;;;;5029697;28;20052;-74
2022/11/25 09:46:59;;;;;;;17.80;5.85;;;6.00;98.70;;;;;;5027195;28;20095;-74
2022/11/25 09:49:52;;;;;;;20.63;5.10;;;6.00;98.50;;;;;;5028059;28;20118;-73
2022/11/25 09:52:31;;;;;;;31.83;11.05;;;6.00;98.40;;;;;;5011644;28;20080;-74
2022/11/25 09:54:59;;;;;;;18.73;5.63;;;6.10;98.40;;;;;;5025266;28;20048;-73
2022/11/25 09:57:43;;;;;;;13.13;4.53;;;6.10;98.30;;;;;;5010870;28;20071;-73
2022/11/25 10:00:15;;;;;;;17.90;5.10;;;6.10;98.30;;;;;;5025253;28;20025;-73
2022/11/25 10:02:49;;;;;;;22.00;5.07;;;6.10;98.20;;;;;;5023191;28;20025;-73
2022/11/25 10:05:25;;;;;;;19.40;4.57;;;6.10;98.10;;;;;;5029470;28;20058;-74
2022/11/25 10:07:55;;;;;;;12.93;4.07;;;6.10;98.10;;;;;;5032465;28;20087;-73
2022/11/25 10:10:28;;;;;;;14.93;4.57;;;6.20;98.10;;;;;;5025614;28;20052;-74
2022/11/25 10:12:56;;;;;;;13.98;3.40;;;6.20;98.10;;;;;;5021372;28;20160;-74
2022/11/25 10:15:45;;;;;;;14.40;4.45;;;6.30;97.90;;;;;;5015064;28;20149;-73
2022/11/25 10:18:28;;;;;;;12.30;3.80;;;6.30;97.80;;;;;;5018219;28;20044;-74
2022/11/25 10:20:53;;;;;;;13.77;4.40;;;6.30;97.80;;;;;;5022808;28;20034;-74
2022/11/25 10:23:29;;;;;;;14.13;3.70;;;6.30;97.70;;;;;;5026633;28;20056;-73
2022/11/25 10:25:59;;;;;;;14.32;3.97;;;6.30;97.70;;;;;;5027283;28;20115;-74
2022/11/25 10:28:33;;;;;;;10.23;3.40;;;6.40;97.70;;;;;;5023824;28;20139;-75
2022/11/25 10:31:19;;;;;;;10.43;3.65;;;6.40;97.70;;;;;;5019690;28;20073;-74
2022/11/25 10:33:55;;;;;;;10.15;2.97;;;6.40;97.70;;;;;;5020751;28;20029;-73
2022/11/25 10:36:27;;;;;;;13.48;3.67;;;6.50;97.70;;;;;;5023090;28;20037;-77
2022/11/25 10:39:05;;;;;;;10.90;3.17;;;6.50;97.60;;;;;;5024391;28;20091;-74
2022/11/25 10:41:37;;;;;;;12.52;3.65;;;6.50;97.60;;;;;;5016020;28;20022;-74
2022/11/25 10:44:02;;;;;;;16.23;3.88;;;6.50;97.50;;;;;;5023761;28;20052;-74
2022/11/25 10:46:36;;;;;;;33.40;14.10;;;6.50;97.50;;;;;;5031662;28;20417;-74
2022/11/25 10:49:22;;;;;;;42.42;17.05;;;6.60;97.60;;;;;;5033369;28;20090;-74
2022/11/25 10:51:49;;;;;;;44.08;21.23;;;6.60;97.60;;;;;;5023555;28;20029;-74
2022/11/25 10:54:18;;;;;;;19.50;8.05;;;6.70;97.70;;;;;;5034440;28;20080;-74
2022/11/25 10:56:51;;;;;;;13.80;5.00;;;6.70;97.80;;;;;;5016520;28;20048;-75
2022/11/25 10:59:30;;;;;;;13.27;4.00;;;6.70;97.80;;;;;;5029738;28;20143;-74
2022/11/25 11:02:18;;;;;;;16.67;4.10;;;6.70;97.90;;;;;;5023184;28;20060;-74
2022/11/25 11:05:08;;;;;;;11.35;3.20;;;6.70;98.00;;;;;;5027068;28;20044;-74
2022/11/25 11:07:42;;;;;;;11.87;3.57;;;6.70;98.10;;;;;;5023715;28;20041;-74
2022/11/25 11:10:13;;;;;;;13.25;3.70;;;6.80;98.20;;;;;;5028255;28;20276;-73
2022/11/25 11:12:52;;;;;;;10.23;3.20;;;6.90;98.30;;;;;;5027589;28;20111;-73
2022/11/25 11:15:21;;;;;;;14.07;3.13;;;7.00;98.30;;;;;;5022611;28;20042;-74
2022/11/25 11:17:47;;;;;;;13.73;3.60;;;7.10;98.30;;;;;;5024729;28;20022;-74
2022/11/25 11:20:16;;;;;;;12.40;3.92;;;7.10;98.30;;;;;;5023408;28;20083;-74
2022/11/25 11:22:48;;;;;;;14.93;3.75;;;7.10;98.20;;;;;;5019032;28;20179;-75
2022/11/25 11:25:19;;;;;;;13.93;4.05;;;7.10;98.10;;;;;;5025050;28;20095;-74
2022/11/25 11:27:46;;;;;;;6.60;3.17;;;7.20;98.20;;;;;;5020715;28;20085;-75
2022/11/25 11:30:20;;;;;;;11.10;3.42;;;7.20;98.10;;;;;;5022751;28;20091;-74
2022/11/25 11:33:26;;;;;;;14.93;3.53;;;7.10;98.00;;;;;;5028300;28;20414;-74
2022/11/25 11:36:05;;;;;;;11.63;3.25;;;7.10;98.00;;;;;;5026449;28;20033;-74
2022/11/25 11:38:36;;;;;;;12.18;3.47;;;7.20;98.00;;;;;;5021420;28;20116;-74
2022/11/25 11:41:15;;;;;;;;;;;7.10;98.00;;;;;;5025374;28;20090;-74
2022/11/25 11:44:06;;;;;;;14.00;3.10;;;7.10;98.00;;;;;;5021872;28;19905;-74
2022/11/25 11:46:41;;;;;;;;;;;7.10;98.00;;;;;;5026519;28;20064;-74
2022/11/25 11:49:18;;;;;;;13.57;3.00;;;7.10;98.00;;;;;;5031286;28;19982;-74
2022/11/25 11:52:05;;;;;;;14.82;3.30;;;7.10;98.10;;;;;;5019334;28;20049;-74
2022/11/25 11:54:51;;;;;;;10.93;4.00;;;7.20;98.10;;;;;;5022450;28;20025;-74
2022/11/25 11:57:42;;;;;;;13.75;4.20;;;7.20;98.10;;;;;;5023614;28;20434;-74
2022/11/25 12:00:12;;;;;;;10.38;3.80;;;7.20;97.90;;;;;;5018571;28;20033;-74
2022/11/25 12:02:52;;;;;;;12.18;3.88;;;7.30;97.90;;;;;;5021354;28;20030;-74
2022/11/25 12:05:22;;;;;;;13.15;3.97;;;7.30;97.90;;;;;;5022703;28;20369;-74
2022/11/25 12:08:28;;;;;;;20.42;3.83;;;7.30;97.90;;;;;;5024996;28;20175;-74
2022/11/25 12:11:02;;;;;;;20.63;4.25;;;7.30;98.00;;;;;;5023838;28;20186;-75
2022/11/25 12:13:56;;;;;;;12.40;3.63;;;7.40;98.00;;;;;;5020233;28;20034;-74
2022/11/25 12:16:35;;;;;;;20.20;4.00;;;7.40;98.10;;;;;;5025435;28;20322;-74
2022/11/25 12:19:15;;;;;;;11.52;3.58;;;7.40;98.20;;;;;;5025507;28;20070;-74
2022/11/25 12:22:04;;;;;;;11.15;3.45;;;7.40;98.10;;;;;;5024167;28;20044;-74
2022/11/25 12:24:58;;;;;;;12.75;3.95;;;7.30;98.30;;;;;;5025222;28;20438;-73
2022/11/25 12:27:30;;;;;;;11.13;3.67;;;7.40;98.30;;;;;;5021168;28;20065;-73
2022/11/25 12:30:06;;;;;;;14.15;4.07;;;7.50;98.40;;;;;;5025200;28;20425;-73
2022/11/25 12:32:43;;;;;;;12.30;4.47;;;7.50;98.50;;;;;;5022546;28;20066;-72
2022/11/25 12:35:09;;;;;;;13.10;4.13;;;7.50;98.50;;;;;;5025477;28;20105;-73
2022/11/25 12:37:51;;;;;;;13.48;4.20;;;7.40;98.50;;;;;;5026937;28;20108;-73
2022/11/25 12:40:24;;;;;;;17.15;4.45;;;7.40;98.60;;;;;;5025022;28;20025;-73
2022/11/25 12:42:53;;;;;;;16.73;5.63;;;7.40;98.60;;;;;;5027321;28;20017;-73
2022/11/25 12:45:24;;;;;;;10.02;4.03;;;7.50;98.70;;;;;;5022822;28;20055;-73
2022/11/25 12:47:51;;;;;;;14.45;4.07;;;7.50;98.80;;;;;;5031294;28;20111;-75
2022/11/25 12:50:41;;;;;;;17.40;4.68;;;7.50;98.70;;;;;;5025508;28;20457;-73
2022/11/25 12:53:12;;;;;;;13.23;4.07;;;7.40;98.70;;;;;;5031245;28;20024;-73
2022/11/25 12:55:39;;;;;;;12.15;4.15;;;7.40;98.80;;;;;;5032980;28;20021;-73
2022/11/25 12:58:08;;;;;;;15.05;4.25;;;7.40;98.80;;;;;;5030352;28;20025;-74
2022/11/25 13:01:06;;;;;;;12.90;4.47;;;7.40;98.90;;;;;;5019361;28;20117;-74
2022/11/25 13:04:05;;;;;;;10.90;4.40;;;7.50;98.90;;;;;;5021011;28;20399;-73